Time,TemperatureF,DewpointF,PressureIn,WindDirection,WindDirectionDegrees,WindSpeedMPH,WindSpeedGustMPH,Humidity,HourlyPrecipIn,Conditions,Clouds,dailyrainin,SolarRadiationWatts/m^2,SoftwareType,DateUTC
2013-12-19 00:03:00,34.0,33.0,-100.00,North,-999,0.0,0.0,95,0.00,,,0.00,0.000000,,2013-12-19 05:03:00,
2013-12-19 00:42:00,33.0,32.0,-100.00,North,-999,0.0,0.0,96,0.00,,,-99.99,0.000000,,2013-12-19 05:42:00,
2013-12-19 00:52:00,33.0,32.0,-100.00,North,-999,0.0,0.0,96,0.00,,,-99.99,0.000000,,2013-12-19 05:52:00,
2013-12-19 01:02:00,33.0,32.0,-100.00,North,-999,0.0,0.0,96,0.00,,,-99.99,0.000000,,2013-12-19 06:02:00,
2013-12-19 01:42:00,32.0,31.0,-100.00,North,-999,0.0,0.0,96,0.00,,,0.00,0.000000,,2013-12-19 06:42:00,
2013-12-19 01:52:00,32.0,31.0,-100.00,North,-999,0.0,0.0,96,0.00,,,0.00,0.000000,,2013-12-19 06:52:00,
2013-12-19 02:02:00,32.0,31.0,-100.00,North,-999,0.0,0.0,96,0.00,,,0.00,0.000000,,2013-12-19 07:02:00,
2013-12-19 02:42:00,31.0,30.0,-100.00,North,-999,0.0,0.0,96,0.00,,,0.00,0.000000,,2013-12-19 07:42:00,
2013-12-19 02:52:00,31.0,30.0,-100.00,North,-999,0.0,0.0,96,0.00,,,0.00,0.000000,,2013-12-19 07:52:00,
2013-12-19 03:02:00,31.0,30.0,-100.00,North,-999,0.0,0.0,96,0.00,,,0.00,0.000000,,2013-12-19 08:02:00,
2013-12-19 03:42:00,31.0,30.0,-100.00,North,-999,0.0,0.0,96,0.00,,,0.00,0.000000,,2013-12-19 08:42:00,
2013-12-19 03:52:00,31.0,30.0,-100.00,North,-999,0.0,0.0,96,0.00,,,0.00,0.000000,,2013-12-19 08:52:00,
2013-12-19 04:02:00,31.0,30.0,-100.00,North,-999,0.0,0.0,96,0.00,,,0.00,0.000000,,2013-12-19 09:02:00,
2013-12-19 04:43:00,31.0,30.0,-100.00,North,-999,0.0,0.0,96,0.00,,,0.00,0.000000,,2013-12-19 09:43:00,
2013-12-19 04:54:00,31.0,30.0,-100.00,North,-999,0.0,0.0,96,0.00,,,0.00,0.000000,,2013-12-19 09:54:00,
2013-12-19 05:03:00,31.0,30.0,-100.00,North,-999,0.0,0.0,96,0.00,,,0.00,0.000000,,2013-12-19 10:03:00,
2013-12-19 05:43:00,30.0,29.0,-100.00,North,-999,0.0,0.0,96,0.00,,,0.00,0.000000,,2013-12-19 10:43:00,
2013-12-19 05:53:00,30.0,29.0,-100.00,North,-999,0.0,0.0,96,0.00,,,0.00,0.000000,,2013-12-19 10:53:00,
2013-12-19 06:03:00,30.0,29.0,-100.00,North,-999,0.0,0.0,96,0.00,,,0.00,0.000000,,2013-12-19 11:03:00,
2013-12-19 06:42:00,30.0,29.0,-100.00,North,-999,0.0,0.0,96,0.00,,,0.00,0.000000,,2013-12-19 11:42:00,
2013-12-19 06:53:00,30.0,29.0,-100.00,North,-999,0.0,0.0,96,0.00,,,0.00,0.000000,,2013-12-19 11:53:00,
2013-12-19 07:02:00,30.0,29.0,-100.00,North,-999,0.0,0.0,96,0.00,,,0.00,0.000000,,2013-12-19 12:02:00,
2013-12-19 07:42:00,31.0,30.0,-100.00,North,-999,0.0,0.0,96,0.00,,,0.00,0.000000,,2013-12-19 12:42:00,
2013-12-19 07:52:00,31.0,30.0,-100.00,North,-999,0.0,0.0,96,0.00,,,0.00,0.000000,,2013-12-19 12:52:00,
2013-12-19 08:02:00,31.0,30.0,-100.00,North,-999,0.0,0.0,96,0.00,,,0.00,0.000000,,2013-12-19 13:02:00,
2013-12-19 08:42:00,32.0,31.0,-100.00,North,-999,0.0,0.0,96,0.00,,,0.00,9.000000,,2013-12-19 13:42:00,
2013-12-19 08:52:00,32.0,31.0,-100.00,North,-999,0.0,0.0,96,0.00,,,0.00,9.000000,,2013-12-19 13:52:00,
2013-12-19 09:02:00,32.0,31.0,-100.00,North,-999,0.0,0.0,96,0.00,,,0.00,9.000000,,2013-12-19 14:02:00,
2013-12-19 09:42:00,42.0,41.0,-100.00,ENE,78,2.0,3.0,97,0.00,,,0.00,112.000000,,2013-12-19 14:42:00,
2013-12-19 09:53:00,42.0,41.0,-100.00,ENE,78,2.0,3.0,97,0.00,,,0.00,112.000000,,2013-12-19 14:53:00,
2013-12-19 10:02:00,42.0,41.0,-100.00,ENE,78,2.0,3.0,97,0.00,,,0.00,112.000000,,2013-12-19 15:02:00,
2013-12-19 10:54:00,55.0,48.0,-100.00,ENE,62,3.0,6.0,76,0.00,,,0.00,374.000000,,2013-12-19 15:54:00,
2013-12-19 11:03:00,55.0,48.0,-100.00,ENE,62,3.0,6.0,76,0.00,,,0.00,374.000000,,2013-12-19 16:03:00,
2013-12-19 11:43:00,62.0,49.0,-100.00,NE,52,4.0,7.0,62,0.00,,,0.00,515.000000,,2013-12-19 16:43:00,
2013-12-19 11:53:00,62.0,49.0,-100.00,NE,52,4.0,7.0,62,0.00,,,0.00,515.000000,,2013-12-19 16:53:00,
2013-12-19 12:02:00,62.0,49.0,-100.00,NE,52,4.0,7.0,62,0.00,,,0.00,515.000000,,2013-12-19 17:02:00,
2013-12-19 12:42:00,66.0,51.0,-100.00,East,99,4.0,9.0,58,0.00,,,0.00,640.000000,,2013-12-19 17:42:00,
2013-12-19 12:53:00,66.0,51.0,-100.00,East,99,4.0,9.0,58,0.00,,,0.00,640.000000,,2013-12-19 17:53:00,
2013-12-19 13:02:00,66.0,51.0,-100.00,East,99,4.0,9.0,58,0.00,,,0.00,640.000000,,2013-12-19 18:02:00,
2013-12-19 13:22:00,69.0,52.0,-100.00,East,99,4.0,9.0,55,0.00,,,0.00,688.000000,,2013-12-19 18:22:00,
2013-12-19 13:32:00,69.0,52.0,-100.00,East,99,4.0,9.0,55,0.00,,,0.00,688.000000,,2013-12-19 18:32:00,
2013-12-19 13:42:00,69.0,52.0,-100.00,East,99,4.0,9.0,55,0.00,,,0.00,688.000000,,2013-12-19 18:42:00,
2013-12-19 13:52:00,69.0,52.0,-100.00,East,99,4.0,9.0,55,0.00,,,0.00,688.000000,,2013-12-19 18:52:00,
2013-12-19 14:02:00,69.0,52.0,-100.00,East,99,4.0,9.0,55,0.00,,,0.00,688.000000,,2013-12-19 19:02:00,
2013-12-19 14:42:00,70.0,53.0,-100.00,East,82,5.0,9.0,54,0.00,,,0.00,649.000000,,2013-12-19 19:42:00,
2013-12-19 14:52:00,70.0,53.0,-100.00,East,82,5.0,9.0,54,0.00,,,0.00,649.000000,,2013-12-19 19:52:00,
2013-12-19 15:01:00,70.0,53.0,-100.00,East,82,5.0,9.0,54,0.00,,,0.00,649.000000,,2013-12-19 20:01:00,
2013-12-19 15:42:00,70.0,53.0,-100.00,East,95,5.0,9.0,54,0.00,,,0.00,537.000000,,2013-12-19 20:42:00,
2013-12-19 15:52:00,70.0,53.0,-100.00,East,95,5.0,9.0,54,0.00,,,0.00,537.000000,,2013-12-19 20:52:00,
2013-12-19 16:02:00,70.0,53.0,-100.00,East,95,5.0,9.0,54,0.00,,,0.00,537.000000,,2013-12-19 21:02:00,
2013-12-19 16:43:00,68.0,53.0,-100.00,ESE,121,3.0,8.0,58,0.00,,,0.00,316.000000,,2013-12-19 21:43:00,
2013-12-19 16:53:00,68.0,53.0,-100.00,ESE,121,3.0,8.0,58,0.00,,,0.00,316.000000,,2013-12-19 21:53:00,
2013-12-19 17:03:00,68.0,53.0,-100.00,ESE,121,3.0,8.0,58,0.00,,,0.00,316.000000,,2013-12-19 22:03:00,
2013-12-19 17:43:00,65.0,54.0,-100.00,East,89,3.0,7.0,67,0.00,,,0.00,45.000000,,2013-12-19 22:43:00,
2013-12-19 17:53:00,65.0,54.0,-100.00,East,89,3.0,7.0,67,0.00,,,0.00,45.000000,,2013-12-19 22:53:00,
2013-12-19 18:03:00,65.0,54.0,-100.00,East,89,3.0,7.0,67,0.00,,,0.00,45.000000,,2013-12-19 23:03:00,
2013-12-19 18:42:00,58.0,53.0,-100.00,ESE,121,1.0,4.0,84,0.00,,,0.00,6.000000,,2013-12-19 23:42:00,
2013-12-19 18:53:00,58.0,53.0,-100.00,ESE,121,1.0,4.0,84,0.00,,,0.00,6.000000,,2013-12-19 23:53:00,
2013-12-19 19:02:00,58.0,53.0,-100.00,ESE,121,1.0,4.0,84,0.00,,,0.00,6.000000,,2013-12-20 00:02:00,
2013-12-19 19:22:00,54.0,51.0,-100.00,North,-999,0.0,3.0,91,0.00,,,0.00,0.000000,,2013-12-20 00:22:00,
2013-12-19 19:32:00,54.0,51.0,-100.00,North,-999,0.0,3.0,91,0.00,,,0.00,0.000000,,2013-12-20 00:32:00,
2013-12-19 19:42:00,54.0,51.0,-100.00,North,-999,0.0,3.0,91,0.00,,,0.00,0.000000,,2013-12-20 00:42:00,
2013-12-19 19:53:00,54.0,51.0,-100.00,North,-999,0.0,3.0,91,0.00,,,0.00,0.000000,,2013-12-20 00:53:00,
2013-12-19 20:02:00,54.0,51.0,-100.00,North,-999,0.0,3.0,91,0.00,,,0.00,0.000000,,2013-12-20 01:02:00,
2013-12-19 20:42:00,50.0,49.0,-100.00,North,-999,0.0,2.0,95,0.00,,,0.00,0.000000,,2013-12-20 01:42:00,
2013-12-19 20:52:00,50.0,49.0,-100.00,North,-999,0.0,2.0,95,0.00,,,0.00,0.000000,,2013-12-20 01:52:00,
2013-12-19 21:02:00,50.0,49.0,-100.00,North,-999,0.0,2.0,95,0.00,,,0.00,0.000000,,2013-12-20 02:02:00,
2013-12-19 21:42:00,49.0,48.0,-100.00,North,-999,0.0,0.0,96,0.00,,,0.00,0.000000,,2013-12-20 02:42:00,
2013-12-19 21:52:00,49.0,48.0,-100.00,North,-999,0.0,0.0,96,0.00,,,0.00,0.000000,,2013-12-20 02:52:00,
2013-12-19 22:02:00,49.0,48.0,-100.00,North,-999,0.0,0.0,96,0.00,,,0.00,0.000000,,2013-12-20 03:02:00,
2013-12-19 22:44:00,49.0,48.0,-100.00,North,-999,0.0,0.0,97,0.00,,,0.00,0.000000,,2013-12-20 03:44:00,
2013-12-19 22:53:00,49.0,48.0,-100.00,North,-999,0.0,0.0,97,0.00,,,0.00,0.000000,,2013-12-20 03:53:00,
2013-12-19 23:03:00,49.0,48.0,-100.00,North,-999,0.0,0.0,97,0.00,,,0.00,0.000000,,2013-12-20 04:03:00,
2013-12-19 23:43:00,48.0,47.0,-100.00,North,-999,0.0,0.0,97,0.00,,,0.00,0.000000,,2013-12-20 04:43:00,
2013-12-19 23:53:00,48.0,47.0,-100.00,North,-999,0.0,0.0,97,0.00,,,0.00,0.000000,,2013-12-20 04:53:00,